sensor_id;sensor_type;location;lat;lon;timestamp;pressure;altitude;pressure_sealevel;temperature
25514;BMP180;48128;54.242;10.280;2023-03-20T00:01:47;101164.00;;;8.00
25514;BMP180;48128;54.242;10.280;2023-03-20T00:04:14;101167.00;;;8.00
25514;BMP180;48128;54.242;10.280;2023-03-20T00:06:41;101168.00;;;7.90
25514;BMP180;48128;54.242;10.280;2023-03-20T00:09:08;101167.00;;;7.90
25514;BMP180;48128;54.242;10.280;2023-03-20T00:11:39;101178.00;;;7.90
25514;BMP180;48128;54.242;10.280;2023-03-20T00:14:09;101182.00;;;7.90
25514;BMP180;48128;54.242;10.280;2023-03-20T00:16:45;101174.00;;;7.90
25514;BMP180;48128;54.242;10.280;2023-03-20T00:19:20;101170.00;;;7.80
25514;BMP180;48128;54.242;10.280;2023-03-20T00:21:49;101175.00;;;7.80
25514;BMP180;48128;54.242;10.280;2023-03-20T00:24:17;101186.00;;;7.80
25514;BMP180;48128;54.242;10.280;2023-03-20T00:26:44;101183.00;;;7.70
25514;BMP180;48128;54.242;10.280;2023-03-20T00:29:27;101174.00;;;7.70
25514;BMP180;48128;54.242;10.280;2023-03-20T00:31:57;101180.00;;;7.70
25514;BMP180;48128;54.242;10.280;2023-03-20T00:34:26;101185.00;;;7.70
25514;BMP180;48128;54.242;10.280;2023-03-20T00:36:54;101170.00;;;7.60
25514;BMP180;48128;54.242;10.280;2023-03-20T00:39:22;101166.00;;;7.60
25514;BMP180;48128;54.242;10.280;2023-03-20T00:46:56;101166.00;;;7.50
25514;BMP180;48128;54.242;10.280;2023-03-20T00:49:29;101178.00;;;7.50
25514;BMP180;48128;54.242;10.280;2023-03-20T00:51:58;101171.00;;;7.50
25514;BMP180;48128;54.242;10.280;2023-03-20T00:54:27;101167.00;;;7.50
25514;BMP180;48128;54.242;10.280;2023-03-20T00:56:58;101168.00;;;7.40
25514;BMP180;48128;54.242;10.280;2023-03-20T00:59:33;101169.00;;;7.40
25514;BMP180;48128;54.242;10.280;2023-03-20T01:02:01;101162.00;;;7.40
25514;BMP180;48128;54.242;10.280;2023-03-20T01:04:36;101160.00;;;7.40
25514;BMP180;48128;54.242;10.280;2023-03-20T01:07:05;101160.00;;;7.40
25514;BMP180;48128;54.242;10.280;2023-03-20T01:09:32;101175.00;;;7.40
25514;BMP180;48128;54.242;10.280;2023-03-20T01:11:59;101178.00;;;7.40
25514;BMP180;48128;54.242;10.280;2023-03-20T01:14:27;101166.00;;;7.40
25514;BMP180;48128;54.242;10.280;2023-03-20T01:16:53;101169.00;;;7.30
25514;BMP180;48128;54.242;10.280;2023-03-20T01:19:21;101174.00;;;7.30
25514;BMP180;48128;54.242;10.280;2023-03-20T01:21:48;101171.00;;;7.30
25514;BMP180;48128;54.242;10.280;2023-03-20T01:24:14;101171.00;;;7.30
25514;BMP180;48128;54.242;10.280;2023-03-20T01:26:43;101172.00;;;7.30
25514;BMP180;48128;54.242;10.280;2023-03-20T01:29:25;101169.00;;;7.20
25514;BMP180;48128;54.242;10.280;2023-03-20T01:31:53;101174.00;;;7.20
25514;BMP180;48128;54.242;10.280;2023-03-20T01:34:20;101178.00;;;7.10
25514;BMP180;48128;54.242;10.280;2023-03-20T01:36:54;101177.00;;;7.10
25514;BMP180;48128;54.242;10.280;2023-03-20T01:39:29;101175.00;;;7.10
25514;BMP180;48128;54.242;10.280;2023-03-20T01:41:57;101173.00;;;7.00
25514;BMP180;48128;54.242;10.280;2023-03-20T01:44:27;101178.00;;;6.90
25514;BMP180;48128;54.242;10.280;2023-03-20T01:46:55;101176.00;;;6.90
25514;BMP180;48128;54.242;10.280;2023-03-20T01:51:49;101183.00;;;6.80
25514;BMP180;48128;54.242;10.280;2023-03-20T01:54:18;101197.00;;;6.70
25514;BMP180;48128;54.242;10.280;2023-03-20T01:56:52;101197.00;;;6.70
25514;BMP180;48128;54.242;10.280;2023-03-20T01:59:25;101195.00;;;6.50
25514;BMP180;48128;54.242;10.280;2023-03-20T02:01:55;101202.00;;;6.40
25514;BMP180;48128;54.242;10.280;2023-03-20T02:04:28;101197.00;;;6.40
25514;BMP180;48128;54.242;10.280;2023-03-20T02:06:56;101186.00;;;6.30
25514;BMP180;48128;54.242;10.280;2023-03-20T02:09:23;101186.00;;;6.30
25514;BMP180;48128;54.242;10.280;2023-03-20T02:11:50;101189.00;;;6.20
25514;BMP180;48128;54.242;10.280;2023-03-20T02:14:17;101175.00;;;6.20
25514;BMP180;48128;54.242;10.280;2023-03-20T02:16:44;101172.00;;;6.20
25514;BMP180;48128;54.242;10.280;2023-03-20T02:22:17;101182.00;;;6.10
25514;BMP180;48128;54.242;10.280;2023-03-20T02:39:42;101164.00;;;6.10
25514;BMP180;48128;54.242;10.280;2023-03-20T02:42:25;101156.00;;;6.10
25514;BMP180;48128;54.242;10.280;2023-03-20T02:45:16;101164.00;;;6.20
25514;BMP180;48128;54.242;10.280;2023-03-20T02:53:12;101150.00;;;6.20
25514;BMP180;48128;54.242;10.280;2023-03-20T02:56:14;101151.00;;;6.20
25514;BMP180;48128;54.242;10.280;2023-03-20T03:01:50;101161.00;;;6.20
25514;BMP180;48128;54.242;10.280;2023-03-20T03:04:11;101147.00;;;6.20
25514;BMP180;48128;54.242;10.280;2023-03-20T03:06:41;101151.00;;;6.20
25514;BMP180;48128;54.242;10.280;2023-03-20T03:09:16;101159.00;;;6.30
25514;BMP180;48128;54.242;10.280;2023-03-20T03:11:48;101154.00;;;6.20
25514;BMP180;48128;54.242;10.280;2023-03-20T03:14:29;101134.00;;;6.30
25514;BMP180;48128;54.242;10.280;2023-03-20T03:16:57;101142.00;;;6.30
25514;BMP180;48128;54.242;10.280;2023-03-20T03:19:26;101131.00;;;6.30
25514;BMP180;48128;54.242;10.280;2023-03-20T03:21:53;101128.00;;;6.30
25514;BMP180;48128;54.242;10.280;2023-03-20T03:24:34;101124.00;;;6.30
25514;BMP180;48128;54.242;10.280;2023-03-20T03:30:02;101130.00;;;6.20
25514;BMP180;48128;54.242;10.280;2023-03-20T03:32:33;101132.00;;;6.20
25514;BMP180;48128;54.242;10.280;2023-03-20T03:35:02;101124.00;;;6.20
25514;BMP180;48128;54.242;10.280;2023-03-20T03:43:29;101111.00;;;6.20
25514;BMP180;48128;54.242;10.280;2023-03-20T03:46:00;101112.00;;;6.20
25514;BMP180;48128;54.242;10.280;2023-03-20T03:48:31;101128.00;;;6.20
25514;BMP180;48128;54.242;10.280;2023-03-20T03:51:16;101128.00;;;6.20
25514;BMP180;48128;54.242;10.280;2023-03-20T03:53:48;101139.00;;;6.20
25514;BMP180;48128;54.242;10.280;2023-03-20T03:56:19;101122.00;;;6.30
25514;BMP180;48128;54.242;10.280;2023-03-20T03:58:48;101111.00;;;6.20
25514;BMP180;48128;54.242;10.280;2023-03-20T04:01:17;101114.00;;;6.30
25514;BMP180;48128;54.242;10.280;2023-03-20T04:03:49;101108.00;;;6.20
25514;BMP180;48128;54.242;10.280;2023-03-20T04:06:17;101125.00;;;6.30
25514;BMP180;48128;54.242;10.280;2023-03-20T04:08:44;101123.00;;;6.30
25514;BMP180;48128;54.242;10.280;2023-03-20T04:11:16;101126.00;;;6.30
25514;BMP180;48128;54.242;10.280;2023-03-20T04:13:44;101129.00;;;6.30
25514;BMP180;48128;54.242;10.280;2023-03-20T04:16:13;101122.00;;;6.30
25514;BMP180;48128;54.242;10.280;2023-03-20T04:18:40;101125.00;;;6.30
25514;BMP180;48128;54.242;10.280;2023-03-20T04:21:07;101109.00;;;6.30
25514;BMP180;48128;54.242;10.280;2023-03-20T04:23:34;101110.00;;;6.30
25514;BMP180;48128;54.242;10.280;2023-03-20T04:26:02;101095.00;;;6.30
25514;BMP180;48128;54.242;10.280;2023-03-20T04:28:29;101109.00;;;6.30
25514;BMP180;48128;54.242;10.280;2023-03-20T04:30:57;101105.00;;;6.30
25514;BMP180;48128;54.242;10.280;2023-03-20T04:33:25;101091.00;;;6.30
25514;BMP180;48128;54.242;10.280;2023-03-20T04:35:53;101091.00;;;6.30
25514;BMP180;48128;54.242;10.280;2023-03-20T04:38:20;101091.00;;;6.30
25514;BMP180;48128;54.242;10.280;2023-03-20T04:40:48;101104.00;;;6.30
25514;BMP180;48128;54.242;10.280;2023-03-20T04:43:18;101088.00;;;6.30
25514;BMP180;48128;54.242;10.280;2023-03-20T04:45:53;101092.00;;;6.30
25514;BMP180;48128;54.242;10.280;2023-03-20T04:48:20;101091.00;;;6.30
25514;BMP180;48128;54.242;10.280;2023-03-20T04:50:47;101100.00;;;6.20
25514;BMP180;48128;54.242;10.280;2023-03-20T04:53:17;101083.00;;;6.20
25514;BMP180;48128;54.242;10.280;2023-03-20T04:55:44;101088.00;;;6.20
25514;BMP180;48128;54.242;10.280;2023-03-20T04:58:11;101095.00;;;6.30
25514;BMP180;48128;54.242;10.280;2023-03-20T05:00:38;101092.00;;;6.20
25514;BMP180;48128;54.242;10.280;2023-03-20T05:03:05;101102.00;;;6.20
25514;BMP180;48128;54.242;10.280;2023-03-20T05:05:31;101075.00;;;6.20
25514;BMP180;48128;54.242;10.280;2023-03-20T05:08:00;101082.00;;;6.20
25514;BMP180;48128;54.242;10.280;2023-03-20T05:10:26;101079.00;;;6.30
25514;BMP180;48128;54.242;10.280;2023-03-20T05:12:53;101084.00;;;6.30
25514;BMP180;48128;54.242;10.280;2023-03-20T05:15:20;101102.00;;;6.30
25514;BMP180;48128;54.242;10.280;2023-03-20T05:17:47;101100.00;;;6.30
25514;BMP180;48128;54.242;10.280;2023-03-20T05:20:17;101094.00;;;6.30
25514;BMP180;48128;54.242;10.280;2023-03-20T05:22:43;101095.00;;;6.30
25514;BMP180;48128;54.242;10.280;2023-03-20T05:25:13;101087.00;;;6.30
25514;BMP180;48128;54.242;10.280;2023-03-20T05:27:40;101102.00;;;6.30
25514;BMP180;48128;54.242;10.280;2023-03-20T05:30:08;101094.00;;;6.30
25514;BMP180;48128;54.242;10.280;2023-03-20T05:32:35;101101.00;;;6.30
25514;BMP180;48128;54.242;10.280;2023-03-20T05:35:02;101095.00;;;6.30
25514;BMP180;48128;54.242;10.280;2023-03-20T05:37:30;101096.00;;;6.40
25514;BMP180;48128;54.242;10.280;2023-03-20T05:39:57;101109.00;;;6.40
25514;BMP180;48128;54.242;10.280;2023-03-20T05:42:23;101111.00;;;6.40
25514;BMP180;48128;54.242;10.280;2023-03-20T05:44:50;101113.00;;;6.40
25514;BMP180;48128;54.242;10.280;2023-03-20T05:47:17;101108.00;;;6.40
25514;BMP180;48128;54.242;10.280;2023-03-20T05:49:44;101123.00;;;6.40
25514;BMP180;48128;54.242;10.280;2023-03-20T05:52:11;101106.00;;;6.40
25514;BMP180;48128;54.242;10.280;2023-03-20T05:54:38;101116.00;;;6.40
25514;BMP180;48128;54.242;10.280;2023-03-20T05:57:04;101109.00;;;6.40
25514;BMP180;48128;54.242;10.280;2023-03-20T05:59:31;101121.00;;;6.40
25514;BMP180;48128;54.242;10.280;2023-03-20T06:01:58;101120.00;;;6.40
25514;BMP180;48128;54.242;10.280;2023-03-20T06:04:25;101117.00;;;6.40
25514;BMP180;48128;54.242;10.280;2023-03-20T06:06:52;101118.00;;;6.40
25514;BMP180;48128;54.242;10.280;2023-03-20T06:09:18;101122.00;;;6.40
25514;BMP180;48128;54.242;10.280;2023-03-20T06:11:45;101126.00;;;6.40
25514;BMP180;48128;54.242;10.280;2023-03-20T06:14:12;101123.00;;;6.40
25514;BMP180;48128;54.242;10.280;2023-03-20T06:16:39;101112.00;;;6.40
25514;BMP180;48128;54.242;10.280;2023-03-20T06:19:06;101127.00;;;6.40
25514;BMP180;48128;54.242;10.280;2023-03-20T06:21:32;101121.00;;;6.50
25514;BMP180;48128;54.242;10.280;2023-03-20T06:23:59;101122.00;;;6.50
25514;BMP180;48128;54.242;10.280;2023-03-20T06:26:26;101124.00;;;6.50
25514;BMP180;48128;54.242;10.280;2023-03-20T06:28:53;101127.00;;;6.50
25514;BMP180;48128;54.242;10.280;2023-03-20T06:31:20;101134.00;;;6.50
25514;BMP180;48128;54.242;10.280;2023-03-20T06:33:47;101136.00;;;6.50
25514;BMP180;48128;54.242;10.280;2023-03-20T06:36:14;101135.00;;;6.50
25514;BMP180;48128;54.242;10.280;2023-03-20T06:38:41;101139.00;;;6.50
25514;BMP180;48128;54.242;10.280;2023-03-20T06:41:08;101154.00;;;6.60
25514;BMP180;48128;54.242;10.280;2023-03-20T06:43:35;101133.00;;;6.60
25514;BMP180;48128;54.242;10.280;2023-03-20T06:46:02;101146.00;;;6.60
25514;BMP180;48128;54.242;10.280;2023-03-20T06:48:29;101145.00;;;6.60
25514;BMP180;48128;54.242;10.280;2023-03-20T06:50:56;101145.00;;;6.60
25514;BMP180;48128;54.242;10.280;2023-03-20T06:53:23;101151.00;;;6.60
25514;BMP180;48128;54.242;10.280;2023-03-20T06:55:50;101138.00;;;6.60
25514;BMP180;48128;54.242;10.280;2023-03-20T06:58:17;101142.00;;;6.60
25514;BMP180;48128;54.242;10.280;2023-03-20T07:00:44;101144.00;;;6.60
25514;BMP180;48128;54.242;10.280;2023-03-20T07:03:12;101144.00;;;6.70
25514;BMP180;48128;54.242;10.280;2023-03-20T07:05:39;101143.00;;;6.70
25514;BMP180;48128;54.242;10.280;2023-03-20T07:08:06;101133.00;;;6.70
25514;BMP180;48128;54.242;10.280;2023-03-20T07:10:34;101137.00;;;6.70
25514;BMP180;48128;54.242;10.280;2023-03-20T07:13:01;101146.00;;;6.70
25514;BMP180;48128;54.242;10.280;2023-03-20T07:15:27;101147.00;;;6.70
25514;BMP180;48128;54.242;10.280;2023-03-20T07:17:55;101143.00;;;6.70
25514;BMP180;48128;54.242;10.280;2023-03-20T07:20:23;101152.00;;;6.70
25514;BMP180;48128;54.242;10.280;2023-03-20T07:22:49;101143.00;;;6.80
25514;BMP180;48128;54.242;10.280;2023-03-20T07:25:16;101146.00;;;6.80
25514;BMP180;48128;54.242;10.280;2023-03-20T07:27:51;101156.00;;;6.80
25514;BMP180;48128;54.242;10.280;2023-03-20T07:30:18;101149.00;;;6.80
25514;BMP180;48128;54.242;10.280;2023-03-20T07:32:45;101171.00;;;6.80
25514;BMP180;48128;54.242;10.280;2023-03-20T07:35:13;101172.00;;;6.80
25514;BMP180;48128;54.242;10.280;2023-03-20T07:37:39;101164.00;;;6.90
25514;BMP180;48128;54.242;10.280;2023-03-20T07:40:07;101173.00;;;6.90
25514;BMP180;48128;54.242;10.280;2023-03-20T07:42:34;101182.00;;;6.90
25514;BMP180;48128;54.242;10.280;2023-03-20T07:45:01;101176.00;;;6.90
25514;BMP180;48128;54.242;10.280;2023-03-20T07:47:28;101184.00;;;6.90
25514;BMP180;48128;54.242;10.280;2023-03-20T07:49:55;101188.00;;;6.90
25514;BMP180;48128;54.242;10.280;2023-03-20T07:52:22;101185.00;;;7.00
25514;BMP180;48128;54.242;10.280;2023-03-20T07:54:48;101181.00;;;7.00
25514;BMP180;48128;54.242;10.280;2023-03-20T07:57:15;101185.00;;;7.00
25514;BMP180;48128;54.242;10.280;2023-03-20T07:59:43;101181.00;;;7.00
25514;BMP180;48128;54.242;10.280;2023-03-20T08:02:16;101185.00;;;7.10
25514;BMP180;48128;54.242;10.280;2023-03-20T08:04:44;101183.00;;;7.10
25514;BMP180;48128;54.242;10.280;2023-03-20T08:07:12;101181.00;;;7.10
25514;BMP180;48128;54.242;10.280;2023-03-20T08:09:39;101182.00;;;7.10
25514;BMP180;48128;54.242;10.280;2023-03-20T08:12:06;101186.00;;;7.10
25514;BMP180;48128;54.242;10.280;2023-03-20T08:14:33;101180.00;;;7.10
25514;BMP180;48128;54.242;10.280;2023-03-20T08:16:59;101175.00;;;7.10
25514;BMP180;48128;54.242;10.280;2023-03-20T08:19:40;101182.00;;;7.20
25514;BMP180;48128;54.242;10.280;2023-03-20T08:22:07;101179.00;;;7.20
25514;BMP180;48128;54.242;10.280;2023-03-20T08:24:33;101181.00;;;7.20
25514;BMP180;48128;54.242;10.280;2023-03-20T08:27:01;101185.00;;;7.20
25514;BMP180;48128;54.242;10.280;2023-03-20T08:29:27;101190.00;;;7.20
25514;BMP180;48128;54.242;10.280;2023-03-20T08:31:54;101194.00;;;7.20
25514;BMP180;48128;54.242;10.280;2023-03-20T08:34:21;101186.00;;;7.30
25514;BMP180;48128;54.242;10.280;2023-03-20T08:36:49;101183.00;;;7.30
25514;BMP180;48128;54.242;10.280;2023-03-20T08:39:18;101191.00;;;7.30
25514;BMP180;48128;54.242;10.280;2023-03-20T08:41:44;101185.00;;;7.30
25514;BMP180;48128;54.242;10.280;2023-03-20T08:44:12;101186.00;;;7.30
25514;BMP180;48128;54.242;10.280;2023-03-20T08:46:39;101175.00;;;7.30
25514;BMP180;48128;54.242;10.280;2023-03-20T08:49:05;101171.00;;;7.30
25514;BMP180;48128;54.242;10.280;2023-03-20T08:51:32;101178.00;;;7.30
25514;BMP180;48128;54.242;10.280;2023-03-20T08:53:59;101167.00;;;7.30
25514;BMP180;48128;54.242;10.280;2023-03-20T08:56:26;101167.00;;;7.30
25514;BMP180;48128;54.242;10.280;2023-03-20T08:58:53;101164.00;;;7.30
25514;BMP180;48128;54.242;10.280;2023-03-20T09:01:22;101167.00;;;7.40
25514;BMP180;48128;54.242;10.280;2023-03-20T09:03:49;101160.00;;;7.40
25514;BMP180;48128;54.242;10.280;2023-03-20T09:06:16;101167.00;;;7.40
25514;BMP180;48128;54.242;10.280;2023-03-20T09:08:42;101181.00;;;7.40
25514;BMP180;48128;54.242;10.280;2023-03-20T09:11:09;101171.00;;;7.40
25514;BMP180;48128;54.242;10.280;2023-03-20T09:13:36;101178.00;;;7.40
25514;BMP180;48128;54.242;10.280;2023-03-20T09:16:03;101182.00;;;7.40
25514;BMP180;48128;54.242;10.280;2023-03-20T09:18:30;101175.00;;;7.40
25514;BMP180;48128;54.242;10.280;2023-03-20T09:20:57;101183.00;;;7.40
25514;BMP180;48128;54.242;10.280;2023-03-20T09:23:24;101185.00;;;7.40
25514;BMP180;48128;54.242;10.280;2023-03-20T09:25:50;101188.00;;;7.50
25514;BMP180;48128;54.242;10.280;2023-03-20T09:28:17;101182.00;;;7.50
25514;BMP180;48128;54.242;10.280;2023-03-20T09:30:44;101189.00;;;7.50
25514;BMP180;48128;54.242;10.280;2023-03-20T09:33:11;101188.00;;;7.60
25514;BMP180;48128;54.242;10.280;2023-03-20T09:35:39;101180.00;;;7.60
25514;BMP180;48128;54.242;10.280;2023-03-20T09:38:09;101187.00;;;7.60
25514;BMP180;48128;54.242;10.280;2023-03-20T09:40:52;101193.00;;;7.60
25514;BMP180;48128;54.242;10.280;2023-03-20T09:43:27;101190.00;;;7.60
25514;BMP180;48128;54.242;10.280;2023-03-20T09:51:37;101203.00;;;7.60
25514;BMP180;48128;54.242;10.280;2023-03-20T09:54:34;101195.00;;;7.60
25514;BMP180;48128;54.242;10.280;2023-03-20T09:57:34;101198.00;;;7.70
25514;BMP180;48128;54.242;10.280;2023-03-20T10:00:06;101192.00;;;7.70
25514;BMP180;48128;54.242;10.280;2023-03-20T10:02:45;101194.00;;;7.80
25514;BMP180;48128;54.242;10.280;2023-03-20T10:05:25;101189.00;;;7.80
25514;BMP180;48128;54.242;10.280;2023-03-20T10:07:54;101200.00;;;7.80
25514;BMP180;48128;54.242;10.280;2023-03-20T10:10:55;101199.00;;;7.90
25514;BMP180;48128;54.242;10.280;2023-03-20T10:18:33;101189.00;;;7.90
25514;BMP180;48128;54.242;10.280;2023-03-20T10:21:07;101193.00;;;8.00
25514;BMP180;48128;54.242;10.280;2023-03-20T10:26:09;101198.00;;;7.90
25514;BMP180;48128;54.242;10.280;2023-03-20T10:28:42;101189.00;;;7.90
25514;BMP180;48128;54.242;10.280;2023-03-20T10:37:14;101179.00;;;7.80
25514;BMP180;48128;54.242;10.280;2023-03-20T10:39:48;101174.00;;;7.80
25514;BMP180;48128;54.242;10.280;2023-03-20T10:42:20;101190.00;;;7.80
25514;BMP180;48128;54.242;10.280;2023-03-20T10:45:03;101189.00;;;7.80
25514;BMP180;48128;54.242;10.280;2023-03-20T10:47:33;101191.00;;;7.80
25514;BMP180;48128;54.242;10.280;2023-03-20T10:50:06;101190.00;;;7.80
25514;BMP180;48128;54.242;10.280;2023-03-20T10:52:35;101178.00;;;7.90
25514;BMP180;48128;54.242;10.280;2023-03-20T10:55:10;101176.00;;;7.90
25514;BMP180;48128;54.242;10.280;2023-03-20T10:57:39;101170.00;;;7.90
25514;BMP180;48128;54.242;10.280;2023-03-20T11:00:37;101172.00;;;7.90
25514;BMP180;48128;54.242;10.280;2023-03-20T11:03:04;101169.00;;;8.00
25514;BMP180;48128;54.242;10.280;2023-03-20T11:05:34;101179.00;;;8.00
25514;BMP180;48128;54.242;10.280;2023-03-20T11:08:12;101183.00;;;8.00
25514;BMP180;48128;54.242;10.280;2023-03-20T11:10:41;101187.00;;;8.00
25514;BMP180;48128;54.242;10.280;2023-03-20T11:18:43;101173.00;;;8.00
25514;BMP180;48128;54.242;10.280;2023-03-20T11:21:20;101169.00;;;8.00
25514;BMP180;48128;54.242;10.280;2023-03-20T11:23:47;101170.00;;;8.00
25514;BMP180;48128;54.242;10.280;2023-03-20T11:26:16;101175.00;;;8.00
25514;BMP180;48128;54.242;10.280;2023-03-20T11:28:54;101164.00;;;8.00
25514;BMP180;48128;54.242;10.280;2023-03-20T11:31:33;101164.00;;;8.10
25514;BMP180;48128;54.242;10.280;2023-03-20T11:37:18;101160.00;;;8.20
25514;BMP180;48128;54.242;10.280;2023-03-20T11:42:34;101179.00;;;8.20
25514;BMP180;48128;54.242;10.280;2023-03-20T11:45:24;101177.00;;;8.30
25514;BMP180;48128;54.242;10.280;2023-03-20T11:47:53;101175.00;;;8.40
25514;BMP180;48128;54.242;10.280;2023-03-20T11:52:52;101170.00;;;8.50
25514;BMP180;48128;54.242;10.280;2023-03-20T11:55:30;101169.00;;;8.60
25514;BMP180;48128;54.242;10.280;2023-03-20T11:57:58;101174.00;;;8.60
25514;BMP180;48128;54.242;10.280;2023-03-20T12:00:29;101176.00;;;8.60
25514;BMP180;48128;54.242;10.280;2023-03-20T12:03:02;101180.00;;;8.60
25514;BMP180;48128;54.242;10.280;2023-03-20T12:05:34;101172.00;;;8.60
25514;BMP180;48128;54.242;10.280;2023-03-20T12:08:10;101173.00;;;8.60
25514;BMP180;48128;54.242;10.280;2023-03-20T12:10:41;101181.00;;;8.60
25514;BMP180;48128;54.242;10.280;2023-03-20T12:15:44;101176.00;;;8.50
25514;BMP180;48128;54.242;10.280;2023-03-20T12:32:11;101160.00;;;8.50
25514;BMP180;48128;54.242;10.280;2023-03-20T12:34:42;101149.00;;;8.50
25514;BMP180;48128;54.242;10.280;2023-03-20T12:37:10;101142.00;;;8.50
25514;BMP180;48128;54.242;10.280;2023-03-20T12:39:43;101144.00;;;8.50
25514;BMP180;48128;54.242;10.280;2023-03-20T12:45:20;101166.00;;;8.50
25514;BMP180;48128;54.242;10.280;2023-03-20T12:48:21;101155.00;;;8.50
25514;BMP180;48128;54.242;10.280;2023-03-20T12:53:44;101157.00;;;8.40
25514;BMP180;48128;54.242;10.280;2023-03-20T13:04:50;101151.00;;;8.60
25514;BMP180;48128;54.242;10.280;2023-03-20T13:07:21;101137.00;;;8.70
25514;BMP180;48128;54.242;10.280;2023-03-20T13:12:45;101143.00;;;8.80
25514;BMP180;48128;54.242;10.280;2023-03-20T13:20:54;101143.00;;;9.10
25514;BMP180;48128;54.242;10.280;2023-03-20T13:23:26;101157.00;;;9.10
25514;BMP180;48128;54.242;10.280;2023-03-20T13:28:57;101165.00;;;9.10
25514;BMP180;48128;54.242;10.280;2023-03-20T13:31:35;101150.00;;;9.00
25514;BMP180;48128;54.242;10.280;2023-03-20T13:37:06;101146.00;;;8.90
25514;BMP180;48128;54.242;10.280;2023-03-20T13:40:10;101134.00;;;9.00
25514;BMP180;48128;54.242;10.280;2023-03-20T13:45:41;101150.00;;;8.90
25514;BMP180;48128;54.242;10.280;2023-03-20T13:50:51;101149.00;;;8.70
25514;BMP180;48128;54.242;10.280;2023-03-20T13:53:37;101139.00;;;8.70
25514;BMP180;48128;54.242;10.280;2023-03-20T14:04:38;101150.00;;;8.50
25514;BMP180;48128;54.242;10.280;2023-03-20T14:07:32;101153.00;;;8.50
25514;BMP180;48128;54.242;10.280;2023-03-20T14:12:58;101150.00;;;8.60
25514;BMP180;48128;54.242;10.280;2023-03-20T14:15:35;101160.00;;;8.60
25514;BMP180;48128;54.242;10.280;2023-03-20T14:18:12;101173.00;;;8.60
25514;BMP180;48128;54.242;10.280;2023-03-20T14:20:41;101185.00;;;8.60
25514;BMP180;48128;54.242;10.280;2023-03-20T14:23:16;101188.00;;;8.50
25514;BMP180;48128;54.242;10.280;2023-03-20T14:25:43;101176.00;;;8.50
25514;BMP180;48128;54.242;10.280;2023-03-20T14:30:41;101178.00;;;8.40
25514;BMP180;48128;54.242;10.280;2023-03-20T14:35:51;101172.00;;;8.50
25514;BMP180;48128;54.242;10.280;2023-03-20T14:39:04;101178.00;;;8.40
25514;BMP180;48128;54.242;10.280;2023-03-20T14:49:48;101137.00;;;8.30
25514;BMP180;48128;54.242;10.280;2023-03-20T14:57:43;101130.00;;;8.20
25514;BMP180;48128;54.242;10.280;2023-03-20T15:00:24;101124.00;;;8.20
25514;BMP180;48128;54.242;10.280;2023-03-20T15:05:51;101106.00;;;8.10
25514;BMP180;48128;54.242;10.280;2023-03-20T15:08:23;101107.00;;;8.00
25514;BMP180;48128;54.242;10.280;2023-03-20T15:10:56;101092.00;;;8.00
25514;BMP180;48128;54.242;10.280;2023-03-20T15:13:24;101084.00;;;7.90
25514;BMP180;48128;54.242;10.280;2023-03-20T15:16:02;101079.00;;;7.80
25514;BMP180;48128;54.242;10.280;2023-03-20T15:18:36;101071.00;;;7.80
25514;BMP180;48128;54.242;10.280;2023-03-20T15:21:18;101066.00;;;7.80
25514;BMP180;48128;54.242;10.280;2023-03-20T15:23:46;101055.00;;;7.80
25514;BMP180;48128;54.242;10.280;2023-03-20T15:26:16;101049.00;;;7.80
25514;BMP180;48128;54.242;10.280;2023-03-20T15:28:44;101047.00;;;7.90
25514;BMP180;48128;54.242;10.280;2023-03-20T15:31:39;101056.00;;;7.90
25514;BMP180;48128;54.242;10.280;2023-03-20T15:34:08;101058.00;;;7.80
25514;BMP180;48128;54.242;10.280;2023-03-20T15:36:39;101061.00;;;7.80
25514;BMP180;48128;54.242;10.280;2023-03-20T15:39:18;101055.00;;;7.80
25514;BMP180;48128;54.242;10.280;2023-03-20T15:41:57;101066.00;;;7.90
25514;BMP180;48128;54.242;10.280;2023-03-20T15:44:35;101061.00;;;7.80
25514;BMP180;48128;54.242;10.280;2023-03-20T15:49:36;101066.00;;;7.90
25514;BMP180;48128;54.242;10.280;2023-03-20T15:52:21;101074.00;;;7.90
25514;BMP180;48128;54.242;10.280;2023-03-20T15:54:49;101073.00;;;7.90
25514;BMP180;48128;54.242;10.280;2023-03-20T15:57:33;101084.00;;;7.90
25514;BMP180;48128;54.242;10.280;2023-03-20T16:00:04;101093.00;;;7.90
25514;BMP180;48128;54.242;10.280;2023-03-20T16:02:32;101102.00;;;7.90
25514;BMP180;48128;54.242;10.280;2023-03-20T16:05:00;101114.00;;;7.90
25514;BMP180;48128;54.242;10.280;2023-03-20T16:07:31;101110.00;;;8.00
25514;BMP180;48128;54.242;10.280;2023-03-20T16:09:58;101093.00;;;8.00
25514;BMP180;48128;54.242;10.280;2023-03-20T16:12:26;101093.00;;;8.00
25514;BMP180;48128;54.242;10.280;2023-03-20T16:14:53;101094.00;;;8.00
25514;BMP180;48128;54.242;10.280;2023-03-20T16:17:21;101104.00;;;8.00
25514;BMP180;48128;54.242;10.280;2023-03-20T16:19:49;101119.00;;;8.00
25514;BMP180;48128;54.242;10.280;2023-03-20T16:22:27;101114.00;;;8.00
25514;BMP180;48128;54.242;10.280;2023-03-20T16:24:58;101125.00;;;8.00
25514;BMP180;48128;54.242;10.280;2023-03-20T16:27:28;101125.00;;;7.90
25514;BMP180;48128;54.242;10.280;2023-03-20T16:29:56;101118.00;;;7.90
25514;BMP180;48128;54.242;10.280;2023-03-20T16:32:24;101116.00;;;7.90
25514;BMP180;48128;54.242;10.280;2023-03-20T16:34:55;101115.00;;;7.90
25514;BMP180;48128;54.242;10.280;2023-03-20T16:37:26;101111.00;;;7.90
25514;BMP180;48128;54.242;10.280;2023-03-20T16:40:11;101114.00;;;7.90
25514;BMP180;48128;54.242;10.280;2023-03-20T16:42:39;101120.00;;;7.90
25514;BMP180;48128;54.242;10.280;2023-03-20T16:47:47;101112.00;;;7.80
25514;BMP180;48128;54.242;10.280;2023-03-20T16:52:51;101133.00;;;7.80
25514;BMP180;48128;54.242;10.280;2023-03-20T16:55:26;101127.00;;;7.80
25514;BMP180;48128;54.242;10.280;2023-03-20T16:57:57;101130.00;;;7.80
25514;BMP180;48128;54.242;10.280;2023-03-20T17:00:28;101120.00;;;7.80
25514;BMP180;48128;54.242;10.280;2023-03-20T17:03:16;101135.00;;;7.80
25514;BMP180;48128;54.242;10.280;2023-03-20T17:05:50;101131.00;;;7.70